SYT weather

Saint-Yan Airport
Saint-Yan, Burgundy, France

Public forecast

Using degrees Celsius for public forecast. Weather courtesy of forecast.io.

METAR (pilot weather report)

Retrieved 2019/09/18 02:30 UTC (45 seconds ago):

LFLN 180230Z AUTO 03004KT CAVOK 15/09 Q1019

TAF (pilot weather forecast)

Closest forecast is Clermont-Ferrand Auvergne Airport, 51.4 nm (95.3 km) SW. Retrieved 2019/09/18 03:26 UTC (0 seconds ago):

TAF LFLC 180200Z 1803/1903 34008KT CAVOK BECMG 1810/1814 02012KT BECMG 1821/1824 34008KT